Time;durP1;ratioP1;P1;durP2;ratioP2;P2;SDS_P1;SDS_P2;PMS_P1;PMS_P2;Temp;Humidity;BMP_temperature;BMP_pressure;BME280_temperature;BME280_humidity;BME280_pressure;Samples;Min_cycle;Max_cycle;Signal;HPM_P1;HPM_P2
2022/10/25 00:02:33;;;;;;;4.30;1.02;;;;;;;;;;5086321;28;20036;-72
2022/10/25 00:05:02;;;;;;;1.88;0.85;;;;;;;;;;5080875;28;20040;-71
2022/10/25 00:07:31;;;;;;;1.87;0.90;;;;;;;;;;5088944;28;20069;-72
2022/10/25 00:10:00;;;;;;;1.63;0.98;;;;;;;;;;5068296;28;20093;-71
2022/10/25 00:12:30;;;;;;;4.25;1.05;;;;;;;;;;5090283;28;20024;-71
2022/10/25 00:14:59;;;;;;;7.50;1.30;;;;;;;;;;5090315;28;20016;-71
2022/10/25 00:17:28;;;;;;;1.88;0.90;;;;;;;;;;5089861;28;20024;-71
2022/10/25 00:19:57;;;;;;;2.25;1.00;;;;;;;;;;5089373;28;20026;-71
2022/10/25 00:22:26;;;;;;;4.32;1.10;;;;;;;;;;5079141;28;20032;-71
2022/10/25 00:24:55;;;;;;;1.75;1.00;;;;;;;;;;5090228;28;20416;-70
2022/10/25 00:27:25;;;;;;;6.38;1.13;;;;;;;;;;5090332;28;20032;-70
2022/10/25 00:29:54;;;;;;;2.17;0.70;;;;;;;;;;5090424;28;20420;-70
2022/10/25 00:32:24;;;;;;;3.35;0.90;;;;;;;;;;5089910;28;20031;-71
2022/10/25 00:34:53;;;;;;;3.38;0.98;;;;;;;;;;5089726;28;20070;-71
2022/10/25 00:37:22;;;;;;;2.58;0.98;;;;;;;;;;5090671;28;20025;-75
2022/10/25 00:39:51;;;;;;;3.55;1.30;;;;;;;;;;5090174;28;20028;-71
2022/10/25 00:42:25;;;;;;;3.83;1.00;;;;;;;;;;5090271;28;20024;-75
2022/10/25 00:44:55;;;;;;;2.50;1.20;;;;;;;;;;5089590;28;20012;-71
2022/10/25 00:47:25;;;;;;;3.63;1.17;;;;;;;;;;5089884;28;20028;-72
2022/10/25 00:49:58;;;;;;;3.05;0.98;;;;;;;;;;5089635;28;20044;-71
2022/10/25 00:52:28;;;;;;;1.58;0.98;;;;;;;;;;5083908;28;20023;-71
2022/10/25 00:54:57;;;;;;;3.15;1.30;;;;;;;;;;5089980;28;20020;-71
2022/10/25 00:57:35;;;;;;;2.55;1.25;;;;;;;;;;5089632;28;20081;-72
2022/10/25 01:00:04;;;;;;;1.02;0.93;;;;;;;;;;5089660;28;20481;-71
2022/10/25 01:02:33;;;;;;;2.40;1.10;;;;;;;;;;5071644;28;20424;-71
2022/10/25 01:05:02;;;;;;;2.47;1.20;;;;;;;;;;5090100;28;20102;-72
2022/10/25 01:07:32;;;;;;;3.55;1.33;;;;;;;;;;5089618;28;20036;-71
2022/10/25 01:10:00;;;;;;;5.40;1.20;;;;;;;;;;5080123;28;20036;-72
2022/10/25 01:12:29;;;;;;;4.60;0.90;;;;;;;;;;5082311;28;20032;-71
2022/10/25 01:14:58;;;;;;;3.13;1.17;;;;;;;;;;5079141;28;20028;-71
2022/10/25 01:17:27;;;;;;;4.45;1.20;;;;;;;;;;5082884;28;20020;-71
2022/10/25 01:20:28;;;;;;;7.32;1.85;;;;;;;;;;5079391;28;20028;-71
2022/10/25 01:23:15;;;;;;;2.97;1.13;;;;;;;;;;5049634;28;20040;-71
2022/10/25 01:25:47;;;;;;;3.13;1.27;;;;;;;;;;5079137;28;20012;-71
2022/10/25 01:28:34;;;;;;;5.88;1.35;;;;;;;;;;5080239;28;20025;-71
2022/10/25 01:31:21;;;;;;;3.38;1.15;;;;;;;;;;5083541;28;20444;-72
2022/10/25 01:34:15;;;;;;;4.78;1.92;;;;;;;;;;5083871;28;20020;-70
2022/10/25 01:36:46;;;;;;;4.63;1.45;;;;;;;;;;5085592;28;20180;-71
2022/10/25 01:39:18;;;;;;;4.40;1.25;;;;;;;;;;5083481;28;20419;-70
2022/10/25 01:41:52;;;;;;;2.25;1.10;;;;;;;;;;5085586;28;20034;-70
2022/10/25 01:44:30;;;;;;;2.35;1.10;;;;;;;;;;5084935;28;20589;-74
2022/10/25 01:46:58;;;;;;;6.63;1.10;;;;;;;;;;5085388;28;20012;-71
2022/10/25 01:50:02;;;;;;;5.40;1.63;;;;;;;;;;5087693;28;20013;-71
2022/10/25 01:52:31;;;;;;;3.15;1.48;;;;;;;;;;5004402;28;20528;-72
2022/10/25 01:55:00;;;;;;;2.97;1.75;;;;;;;;;;5070652;28;20044;-71
2022/10/25 01:57:42;;;;;;;2.75;1.15;;;;;;;;;;5086062;28;20065;-71
2022/10/25 02:00:19;;;;;;;6.65;1.48;;;;;;;;;;5083960;28;20203;-72
2022/10/25 02:02:57;;;;;;;6.18;1.27;;;;;;;;;;5085748;28;20089;-71
2022/10/25 02:05:32;;;;;;;4.70;1.30;;;;;;;;;;5084570;28;20027;-72
2022/10/25 02:08:10;;;;;;;7.55;1.33;;;;;;;;;;5084269;28;20134;-74
2022/10/25 02:10:53;;;;;;;1.45;1.13;;;;;;;;;;5085393;28;20016;-72
2022/10/25 02:13:30;;;;;;;3.30;1.42;;;;;;;;;;5087399;28;20095;-76
2022/10/25 02:16:03;;;;;;;3.25;1.60;;;;;;;;;;5084019;28;20086;-72
2022/10/25 02:18:33;;;;;;;5.97;1.70;;;;;;;;;;5069545;28;20031;-72
2022/10/25 02:21:02;;;;;;;;;;;;;;;;;;5069368;28;20074;-72
2022/10/25 02:23:32;;;;;;;4.22;1.58;;;;;;;;;;5086975;28;19907;-71
2022/10/25 02:26:02;;;;;;;5.97;1.70;;;;;;;;;;5092629;28;20082;-71
2022/10/25 02:28:31;;;;;;;3.80;1.75;;;;;;;;;;5091922;28;20354;-72
2022/10/25 02:31:01;;;;;;;3.15;1.63;;;;;;;;;;5092375;28;20058;-71
2022/10/25 02:33:30;;;;;;;6.28;1.67;;;;;;;;;;5073556;28;20741;-71
2022/10/25 02:36:10;;;;;;;5.82;1.92;;;;;;;;;;5092767;28;20491;-72
2022/10/25 02:38:40;;;;;;;4.22;1.70;;;;;;;;;;5091337;28;20039;-72
2022/10/25 02:44:19;;;;;;;2.90;1.25;;;;;;;;;;5088898;28;20035;-71
2022/10/25 02:46:48;;;;;;;5.82;1.50;;;;;;;;;;5092263;28;20097;-71
2022/10/25 02:49:17;;;;;;;6.95;2.00;;;;;;;;;;5087178;28;20031;-72
2022/10/25 02:51:46;;;;;;;6.75;1.88;;;;;;;;;;5091375;28;20048;-72
2022/10/25 02:54:15;;;;;;;5.68;1.70;;;;;;;;;;5088099;28;20420;-72
2022/10/25 02:56:45;;;;;;;4.43;1.70;;;;;;;;;;5092077;28;20028;-70
2022/10/25 02:59:14;;;;;;;3.20;1.80;;;;;;;;;;5073817;28;20119;-71
2022/10/25 03:01:44;;;;;;;7.95;2.53;;;;;;;;;;5091860;28;20155;-71
2022/10/25 03:04:13;;;;;;;4.20;1.30;;;;;;;;;;5091826;28;20020;-71
2022/10/25 03:06:42;;;;;;;4.07;1.67;;;;;;;;;;5091979;28;20086;-72
2022/10/25 03:09:11;;;;;;;7.88;1.85;;;;;;;;;;5087588;28;20028;-72
2022/10/25 03:11:40;;;;;;;2.60;1.20;;;;;;;;;;5073297;28;20024;-72
2022/10/25 03:14:09;;;;;;;4.32;1.58;;;;;;;;;;5091674;28;20358;-71
2022/10/25 03:16:38;;;;;;;6.88;1.63;;;;;;;;;;5091561;28;20032;-71
2022/10/25 03:19:07;;;;;;;6.75;2.08;;;;;;;;;;5091719;28;20095;-70
2022/10/25 03:21:37;;;;;;;3.65;1.58;;;;;;;;;;5091187;28;20444;-71
2022/10/25 03:24:06;;;;;;;4.70;1.37;;;;;;;;;;5089595;28;20077;-71
2022/10/25 03:26:35;;;;;;;9.15;2.40;;;;;;;;;;5077506;28;20279;-70
2022/10/25 03:29:03;;;;;;;6.20;1.83;;;;;;;;;;5080805;28;20028;-70
2022/10/25 03:31:33;;;;;;;3.53;1.40;;;;;;;;;;5091098;28;20027;-71
2022/10/25 03:34:02;;;;;;;3.70;1.70;;;;;;;;;;5078146;28;20480;-71
2022/10/25 03:36:31;;;;;;;5.30;1.25;;;;;;;;;;5090033;28;20159;-71
2022/10/25 03:39:00;;;;;;;5.05;1.95;;;;;;;;;;5072650;28;20027;-71
2022/10/25 03:41:29;;;;;;;3.90;1.50;;;;;;;;;;5090310;28;20024;-72
2022/10/25 03:43:58;;;;;;;5.32;1.40;;;;;;;;;;5091095;28;20740;-71
2022/10/25 03:46:26;;;;;;;6.95;1.67;;;;;;;;;;5090742;28;20081;-71
2022/10/25 03:48:56;;;;;;;3.63;1.73;;;;;;;;;;5090730;28;20024;-71
2022/10/25 03:51:24;;;;;;;5.50;1.70;;;;;;;;;;5087270;28;20044;-75
2022/10/25 03:53:53;;;;;;;6.30;1.70;;;;;;;;;;5090685;28;20020;-71
2022/10/25 03:56:22;;;;;;;3.10;1.58;;;;;;;;;;5091244;28;20032;-71
2022/10/25 03:58:52;;;;;;;4.60;1.42;;;;;;;;;;5090051;28;20028;-71
2022/10/25 04:01:21;;;;;;;4.65;1.50;;;;;;;;;;5091084;28;20024;-71
2022/10/25 04:03:50;;;;;;;7.95;1.90;;;;;;;;;;5089832;28;20028;-71
2022/10/25 04:06:19;;;;;;;3.53;1.60;;;;;;;;;;5091128;28;20085;-71
2022/10/25 04:08:48;;;;;;;4.75;1.70;;;;;;;;;;5089484;28;20020;-71
2022/10/25 04:11:17;;;;;;;6.43;1.85;;;;;;;;;;5090576;28;20530;-71
2022/10/25 04:13:46;;;;;;;5.03;1.70;;;;;;;;;;5071365;28;20591;-71
2022/10/25 04:16:16;;;;;;;2.72;1.52;;;;;;;;;;5091027;28;20032;-70
2022/10/25 04:18:45;;;;;;;3.50;1.30;;;;;;;;;;5089442;28;20089;-70
2022/10/25 04:21:14;;;;;;;3.42;1.70;;;;;;;;;;5090791;28;20069;-71
2022/10/25 04:23:42;;;;;;;7.30;1.77;;;;;;;;;;5071379;28;20067;-71
2022/10/25 04:26:16;;;;;;;6.68;1.80;;;;;;;;;;5090762;28;20065;-70
2022/10/25 04:28:45;;;;;;;4.32;1.35;;;;;;;;;;5089001;28;20020;-71
2022/10/25 04:31:14;;;;;;;5.82;1.83;;;;;;;;;;5091028;28;20476;-70
2022/10/25 04:33:43;;;;;;;7.43;1.77;;;;;;;;;;5092664;28;20028;-71
2022/10/25 04:36:12;;;;;;;2.75;1.40;;;;;;;;;;5066187;28;20020;-72
2022/10/25 04:38:41;;;;;;;3.90;1.55;;;;;;;;;;5087080;28;20036;-71
2022/10/25 04:41:12;;;;;;;5.30;1.60;;;;;;;;;;5091107;28;20465;-72
2022/10/25 04:43:41;;;;;;;;;;;;;;;;;;5090362;28;20035;-72
2022/10/25 04:46:10;;;;;;;6.43;1.80;;;;;;;;;;5091026;28;19904;-72
2022/10/25 04:48:40;;;;;;;1.92;1.50;;;;;;;;;;5089659;28;20082;-72
2022/10/25 04:51:09;;;;;;;7.93;2.80;;;;;;;;;;5084997;28;20071;-72
2022/10/25 04:53:38;;;;;;;3.05;1.33;;;;;;;;;;5065042;28;20086;-75
2022/10/25 04:56:09;;;;;;;7.25;1.80;;;;;;;;;;5089795;28;20047;-72
2022/10/25 04:58:39;;;;;;;8.40;1.75;;;;;;;;;;5080673;28;20081;-74
2022/10/25 05:01:10;;;;;;;4.47;1.70;;;;;;;;;;5072086;28;20063;-72
2022/10/25 05:03:40;;;;;;;3.97;1.45;;;;;;;;;;5089189;28;20047;-72
2022/10/25 05:06:12;;;;;;;4.38;1.70;;;;;;;;;;5084855;28;20435;-72
2022/10/25 05:08:42;;;;;;;6.38;1.70;;;;;;;;;;5085659;28;20074;-73
2022/10/25 05:11:11;;;;;;;;;;;;;;;;;;5089121;28;20036;-72
2022/10/25 05:13:41;;;;;;;5.15;2.00;;;;;;;;;;5084127;28;19927;-71
2022/10/25 05:16:13;;;;;;;5.22;1.85;;;;;;;;;;5087372;28;20036;-71
2022/10/25 05:18:44;;;;;;;3.22;1.50;;;;;;;;;;5084417;28;20043;-71
2022/10/25 05:21:14;;;;;;;5.22;1.63;;;;;;;;;;5081455;28;20082;-72
2022/10/25 05:23:43;;;;;;;7.05;2.15;;;;;;;;;;5090935;28;20069;-72
2022/10/25 05:26:19;;;;;;;9.15;3.00;;;;;;;;;;5094314;28;20024;-72
2022/10/25 05:28:49;;;;;;;5.05;2.08;;;;;;;;;;5092661;28;20035;-71
2022/10/25 05:31:20;;;;;;;7.07;2.38;;;;;;;;;;5087648;28;20040;-71
2022/10/25 05:33:54;;;;;;;5.20;2.10;;;;;;;;;;5073443;28;20605;-68
2022/10/25 05:36:27;;;;;;;5.65;2.55;;;;;;;;;;5093894;28;20017;-69
2022/10/25 05:39:00;;;;;;;7.00;2.58;;;;;;;;;;5093570;28;20090;-68
2022/10/25 05:41:32;;;;;;;11.60;2.60;;;;;;;;;;5088193;28;20035;-72
2022/10/25 05:44:06;;;;;;;6.22;2.42;;;;;;;;;;5077638;28;20381;-70
2022/10/25 05:46:42;;;;;;;9.77;2.30;;;;;;;;;;5085970;28;20024;-69
2022/10/25 05:49:18;;;;;;;4.40;2.17;;;;;;;;;;5083267;28;20016;-72
2022/10/25 05:51:51;;;;;;;6.10;2.20;;;;;;;;;;5089105;28;20047;-74
2022/10/25 05:54:31;;;;;;;11.15;3.42;;;;;;;;;;5093157;28;20028;-70
2022/10/25 05:57:06;;;;;;;6.65;2.72;;;;;;;;;;5094107;28;20055;-67
2022/10/25 05:59:44;;;;;;;9.50;3.47;;;;;;;;;;5085599;28;20024;-68
2022/10/25 06:02:21;;;;;;;7.80;3.13;;;;;;;;;;5093529;28;20028;-68
2022/10/25 06:04:55;;;;;;;5.05;2.38;;;;;;;;;;5091408;28;20559;-73
2022/10/25 06:07:26;;;;;;;3.90;2.22;;;;;;;;;;5082892;28;20103;-70
2022/10/25 06:09:57;;;;;;;7.07;1.92;;;;;;;;;;5092058;28;20085;-72
2022/10/25 06:12:29;;;;;;;4.18;1.83;;;;;;;;;;5093934;28;20051;-69
2022/10/25 06:14:58;;;;;;;9.15;2.22;;;;;;;;;;5093006;28;20472;-69
2022/10/25 06:17:27;;;;;;;6.18;2.78;;;;;;;;;;5091487;28;20056;-68
2022/10/25 06:19:56;;;;;;;5.82;1.80;;;;;;;;;;5073514;28;20391;-70
2022/10/25 06:22:26;;;;;;;6.70;2.00;;;;;;;;;;5069821;28;20028;-71
2022/10/25 06:24:55;;;;;;;2.90;1.60;;;;;;;;;;5083857;28;20024;-70
2022/10/25 06:27:24;;;;;;;4.57;1.88;;;;;;;;;;5092879;28;20016;-72
2022/10/25 06:29:53;;;;;;;6.38;1.67;;;;;;;;;;5091554;28;20032;-73
2022/10/25 06:32:22;;;;;;;4.78;1.58;;;;;;;;;;5092485;28;20453;-71
2022/10/25 06:34:51;;;;;;;5.03;1.75;;;;;;;;;;5073050;28;20373;-71
2022/10/25 06:37:21;;;;;;;5.53;1.90;;;;;;;;;;5085471;28;20040;-71
2022/10/25 06:39:50;;;;;;;4.75;1.70;;;;;;;;;;5091427;28;20047;-71
2022/10/25 06:42:19;;;;;;;7.40;1.90;;;;;;;;;;5092204;28;20512;-71
2022/10/25 06:44:48;;;;;;;5.22;1.85;;;;;;;;;;5088047;28;20031;-72
2022/10/25 06:47:17;;;;;;;4.45;1.60;;;;;;;;;;5086662;28;20085;-71
2022/10/25 06:49:46;;;;;;;6.18;2.10;;;;;;;;;;5085014;28;20113;-71
2022/10/25 06:52:16;;;;;;;5.47;1.67;;;;;;;;;;5086081;28;20031;-71
2022/10/25 06:54:45;;;;;;;6.53;2.20;;;;;;;;;;5085376;28;20016;-71
2022/10/25 06:57:14;;;;;;;3.97;1.90;;;;;;;;;;5064541;28;20453;-71
2022/10/25 06:59:44;;;;;;;7.05;2.10;;;;;;;;;;5067687;28;20020;-71
2022/10/25 07:02:13;;;;;;;4.63;1.98;;;;;;;;;;5086301;28;20032;-71
2022/10/25 07:04:43;;;;;;;7.18;2.10;;;;;;;;;;5082212;28;20082;-71
2022/10/25 07:07:13;;;;;;;9.50;2.58;;;;;;;;;;5085976;28;20430;-73
2022/10/25 07:09:43;;;;;;;6.63;1.85;;;;;;;;;;5082405;28;20031;-70
2022/10/25 07:12:11;;;;;;;8.25;1.92;;;;;;;;;;5084823;28;20020;-71
2022/10/25 07:14:40;;;;;;;4.10;1.55;;;;;;;;;;5080686;28;20020;-71
2022/10/25 07:17:09;;;;;;;7.10;1.85;;;;;;;;;;5084833;28;20028;-74
2022/10/25 07:19:36;;;;;;;3.60;1.42;;;;;;;;;;5079372;28;20020;-72
2022/10/25 07:22:03;;;;;;;3.55;1.45;;;;;;;;;;5087869;28;20028;-71
2022/10/25 07:24:30;;;;;;;9.15;1.65;;;;;;;;;;5068648;28;20032;-76
2022/10/25 07:26:57;;;;;;;4.10;1.50;;;;;;;;;;5082986;28;20021;-72
2022/10/25 07:29:24;;;;;;;7.57;1.45;;;;;;;;;;5082946;28;20025;-72
2022/10/25 07:31:51;;;;;;;4.45;1.60;;;;;;;;;;5084096;28;20025;-72
2022/10/25 07:34:19;;;;;;;3.95;1.63;;;;;;;;;;5087299;28;20016;-72
2022/10/25 07:36:46;;;;;;;7.00;1.77;;;;;;;;;;5083875;28;20082;-74
2022/10/25 07:39:13;;;;;;;7.00;1.55;;;;;;;;;;5087063;28;20542;-71
2022/10/25 07:41:41;;;;;;;4.63;1.20;;;;;;;;;;5067271;28;20047;-71
2022/10/25 07:44:07;;;;;;;9.80;1.55;;;;;;;;;;5084449;28;20032;-72
2022/10/25 07:46:34;;;;;;;4.97;1.40;;;;;;;;;;5084234;28;20377;-72
2022/10/25 07:49:01;;;;;;;4.90;1.50;;;;;;;;;;5083732;28;20020;-72
2022/10/25 07:51:28;;;;;;;4.40;1.50;;;;;;;;;;5085032;28;20055;-70
2022/10/25 07:53:55;;;;;;;4.57;1.85;;;;;;;;;;5083811;28;20029;-71
2022/10/25 07:56:22;;;;;;;5.65;1.95;;;;;;;;;;5086727;28;20016;-71
2022/10/25 07:58:49;;;;;;;4.82;1.30;;;;;;;;;;5063081;28;20243;-72
2022/10/25 08:01:20;;;;;;;5.00;1.50;;;;;;;;;;5085261;28;20020;-72
2022/10/25 08:03:47;;;;;;;4.22;1.40;;;;;;;;;;5080292;28;20028;-71
2022/10/25 08:06:14;;;;;;;5.55;1.73;;;;;;;;;;5090454;28;20105;-71
2022/10/25 08:08:41;;;;;;;5.75;1.38;;;;;;;;;;5071712;28;20016;-72
2022/10/25 08:11:08;;;;;;;2.75;1.40;;;;;;;;;;5087820;28;20021;-72
2022/10/25 08:13:36;;;;;;;5.43;1.20;;;;;;;;;;5089786;28;20027;-72
2022/10/25 08:16:03;;;;;;;7.97;1.30;;;;;;;;;;5090944;28;20028;-72
2022/10/25 08:18:30;;;;;;;6.65;1.85;;;;;;;;;;5090747;28;20111;-76
2022/10/25 08:20:58;;;;;;;4.85;1.42;;;;;;;;;;5090087;28;20024;-72
2022/10/25 08:23:25;;;;;;;6.75;1.05;;;;;;;;;;5087893;28;20082;-71
2022/10/25 08:25:52;;;;;;;3.20;1.30;;;;;;;;;;5081053;28;20126;-71
2022/10/25 08:28:19;;;;;;;3.38;1.02;;;;;;;;;;5090795;28;20024;-71
2022/10/25 08:30:46;;;;;;;3.60;1.50;;;;;;;;;;5089384;28;20028;-72
2022/10/25 08:33:13;;;;;;;7.20;1.70;;;;;;;;;;5091065;28;20035;-72
2022/10/25 08:35:40;;;;;;;5.85;1.30;;;;;;;;;;5089584;28;20082;-71
2022/10/25 08:38:07;;;;;;;2.97;1.20;;;;;;;;;;5090826;28;20043;-71
2022/10/25 08:41:13;;;;;;;5.68;0.98;;;;;;;;;;5079952;28;20025;-71
2022/10/25 08:43:43;;;;;;;9.13;1.80;;;;;;;;;;4980779;28;20039;-71
2022/10/25 08:46:13;;;;;;;4.55;1.00;;;;;;;;;;4988403;28;20031;-70
2022/10/25 08:48:43;;;;;;;3.92;0.95;;;;;;;;;;4982195;28;20575;-69
2022/10/25 08:51:30;;;;;;;5.65;1.30;;;;;;;;;;4992165;28;20050;-71
2022/10/25 08:53:57;;;;;;;6.68;1.30;;;;;;;;;;5011015;28;20109;-69
2022/10/25 08:56:24;;;;;;;6.57;1.33;;;;;;;;;;5012559;28;20025;-69
2022/10/25 08:58:53;;;;;;;7.97;1.50;;;;;;;;;;5010724;28;20249;-70
2022/10/25 09:01:23;;;;;;;3.50;1.40;;;;;;;;;;5012216;28;20109;-69
2022/10/25 09:03:49;;;;;;;8.30;1.17;;;;;;;;;;5010490;28;20146;-69
2022/10/25 09:06:34;;;;;;;7.03;1.40;;;;;;;;;;5011966;28;20260;-69
2022/10/25 09:09:21;;;;;;;7.35;1.40;;;;;;;;;;5016507;28;20052;-69
2022/10/25 09:12:01;;;;;;;2.55;1.38;;;;;;;;;;5008164;28;20160;-69
2022/10/25 09:14:34;;;;;;;5.72;1.20;;;;;;;;;;5051573;28;20555;-69
2022/10/25 09:17:00;;;;;;;3.90;1.25;;;;;;;;;;5093733;28;20032;-69
2022/10/25 09:19:33;;;;;;;3.15;1.00;;;;;;;;;;5091960;28;20544;-69
2022/10/25 09:22:04;;;;;;;5.80;1.70;;;;;;;;;;5092891;28;20028;-71
2022/10/25 09:24:35;;;;;;;5.25;1.23;;;;;;;;;;5093881;28;20115;-72
2022/10/25 09:27:27;;;;;;;3.80;1.27;;;;;;;;;;5093880;28;20027;-70
2022/10/25 09:29:57;;;;;;;4.35;1.40;;;;;;;;;;5088135;28;20039;-72
2022/10/25 09:32:27;;;;;;;4.05;1.08;;;;;;;;;;5094195;28;20098;-70
2022/10/25 09:34:53;;;;;;;7.18;1.20;;;;;;;;;;5092379;28;20024;-71
2022/10/25 09:37:22;;;;;;;8.48;1.27;;;;;;;;;;5094161;28;20021;-71
2022/10/25 09:40:07;;;;;;;7.30;1.30;;;;;;;;;;5084932;28;20077;-72
2022/10/25 09:42:38;;;;;;;3.63;1.00;;;;;;;;;;5085334;28;20031;-70
2022/10/25 09:45:07;;;;;;;6.13;1.23;;;;;;;;;;5073614;28;20056;-70
2022/10/25 09:47:42;;;;;;;4.00;1.45;;;;;;;;;;5093210;28;20481;-71
2022/10/25 09:50:26;;;;;;;7.20;1.30;;;;;;;;;;5093228;28;20044;-71
2022/10/25 09:52:58;;;;;;;7.07;1.42;;;;;;;;;;5087484;28;20155;-71
2022/10/25 09:55:31;;;;;;;5.55;1.08;;;;;;;;;;5093873;28;20039;-71
2022/10/25 09:57:57;;;;;;;2.90;0.90;;;;;;;;;;5094117;28;20028;-71
2022/10/25 10:00:24;;;;;;;4.22;1.38;;;;;;;;;;5093090;28;20528;-71
2022/10/25 10:02:50;;;;;;;6.18;1.50;;;;;;;;;;5092364;28;20190;-70
2022/10/25 10:05:17;;;;;;;4.25;1.20;;;;;;;;;;5092859;28;20066;-71
2022/10/25 10:07:44;;;;;;;7.07;1.35;;;;;;;;;;5090677;28;20024;-71
2022/10/25 10:10:13;;;;;;;2.75;1.02;;;;;;;;;;5092955;28;20028;-71
2022/10/25 10:12:43;;;;;;;6.53;1.52;;;;;;;;;;5092398;28;20099;-71
2022/10/25 10:15:33;;;;;;;3.00;0.90;;;;;;;;;;5092625;28;20024;-71
2022/10/25 10:18:17;;;;;;;6.75;1.50;;;;;;;;;;5070373;28;20028;-72
2022/10/25 10:21:03;;;;;;;2.75;1.45;;;;;;;;;;5081888;28;20024;-70
2022/10/25 10:23:36;;;;;;;3.50;1.42;;;;;;;;;;5092688;28;20066;-70
2022/10/25 10:26:13;;;;;;;5.10;1.85;;;;;;;;;;5084685;28;20381;-71
2022/10/25 10:28:44;;;;;;;4.45;1.05;;;;;;;;;;5091656;28;20031;-72
2022/10/25 10:31:09;;;;;;;;;;;;;;;;;;5093063;28;20035;-71
2022/10/25 10:33:37;;;;;;;5.00;1.20;;;;;;;;;;5093966;28;19903;-72
2022/10/25 10:36:41;;;;;;;8.38;1.30;;;;;;;;;;5074183;28;20121;-71
2022/10/25 10:39:21;;;;;;;3.38;1.10;;;;;;;;;;4987418;28;20031;-71
2022/10/25 10:42:03;;;;;;;4.07;1.38;;;;;;;;;;5068594;28;20044;-71
2022/10/25 10:44:35;;;;;;;2.80;1.10;;;;;;;;;;5086964;28;20500;-70
2022/10/25 10:47:09;;;;;;;3.22;0.80;;;;;;;;;;5090511;28;20051;-71
2022/10/25 10:49:37;;;;;;;6.13;1.00;;;;;;;;;;5091160;28;20527;-72
2022/10/25 10:52:03;;;;;;;3.10;1.00;;;;;;;;;;5092342;28;20032;-71
2022/10/25 10:54:45;;;;;;;2.47;1.00;;;;;;;;;;5090330;28;20428;-72
2022/10/25 10:57:18;;;;;;;7.63;1.42;;;;;;;;;;5064814;28;20028;-72
2022/10/25 10:59:55;;;;;;;4.95;1.05;;;;;;;;;;5074186;28;20369;-72
2022/10/25 11:02:41;;;;;;;4.72;1.15;;;18.20;99.90;;;;;;5091541;28;20154;-71
2022/10/25 11:05:30;;;;;;;6.88;1.50;;;18.20;99.90;;;;;;5090400;28;20127;-70
2022/10/25 11:08:02;;;;;;;4.68;1.10;;;18.20;99.90;;;;;;5091745;28;20024;-72
2022/10/25 11:10:29;;;;;;;3.50;0.82;;;18.10;99.90;;;;;;5068463;28;20104;-71
2022/10/25 11:13:06;;;;;;;6.03;1.00;;;18.30;99.90;;;;;;5087037;28;20043;-72
2022/10/25 11:15:55;;;;;;;3.33;1.10;;;18.40;99.90;;;;;;5080809;28;20020;-75
2022/10/25 11:18:27;;;;;;;1.83;1.00;;;;;;;;;;5033596;28;20110;-71
2022/10/25 11:20:57;;;;;;;2.60;1.00;;;;;;;;;;5090202;28;20062;-71
2022/10/25 11:23:31;;;;;;;2.33;0.90;;;;;;;;;;5092044;28;20036;-71
2022/10/25 11:26:20;;;;;;;10.48;1.40;;;;;;;;;;5072145;28;20366;-72
2022/10/25 11:28:48;;;;;;;2.50;1.02;;;;;;;;;;5069930;28;20454;-71
2022/10/25 11:31:22;;;;;;;6.95;1.20;;;;;;;;;;5085711;28;20009;-71
2022/10/25 11:34:02;;;;;;;4.22;1.00;;;;;;;;;;5090363;28;20099;-71
2022/10/25 11:36:38;;;;;;;3.10;1.30;;;;;;;;;;5091682;28;20016;-71
2022/10/25 11:39:09;;;;;;;2.80;0.90;;;;;;;;;;5091046;28;20027;-71
2022/10/25 11:41:38;;;;;;;4.00;1.02;;;;;;;;;;5090941;28;20039;-72
2022/10/25 11:44:19;;;;;;;2.30;1.00;;;;;;;;;;5091316;28;20024;-71
2022/10/25 11:46:53;;;;;;;13.75;2.00;;;;;;;;;;5090144;28;20052;-73
2022/10/25 11:49:25;;;;;;;4.70;1.95;;;;;;;;;;5091527;28;20111;-71
2022/10/25 11:52:10;;;;;;;4.85;1.00;;;;;;;;;;5090212;28;20052;-71
2022/10/25 11:54:39;;;;;;;2.63;0.90;;;19.70;99.90;;;;;;5088773;28;20016;-72
2022/10/25 11:57:23;;;;;;;2.50;0.75;;;19.70;99.90;;;;;;5090316;28;20036;-70
2022/10/25 12:00:44;;;;;;;3.28;1.15;;;19.80;99.90;;;;;;5089902;28;20032;-71
2022/10/25 12:03:24;;;;;;;2.90;0.80;;;20.10;99.90;;;;;;5004796;28;20050;-71
2022/10/25 12:06:08;;;;;;;8.73;0.90;;;20.20;99.90;;;;;;5085866;28;20814;-70
2022/10/25 12:09:02;;;;;;;4.38;0.90;;;20.40;99.90;;;;;;5077667;28;20107;-70
2022/10/25 12:11:36;;;;;;;5.07;0.65;;;20.50;99.90;;;;;;5089208;28;20058;-71
2022/10/25 12:14:11;;;;;;;3.03;0.90;;;20.50;99.90;;;;;;5072476;28;20032;-71
2022/10/25 12:16:39;;;;;;;4.85;1.00;;;20.80;99.90;;;;;;5090011;28;20042;-72
2022/10/25 12:19:21;;;;;;;3.58;0.80;;;21.10;99.90;;;;;;5072229;28;20669;-71
2022/10/25 12:22:22;;;;;;;3.70;0.85;;;21.40;99.90;;;;;;5089721;28;20419;-70
2022/10/25 12:24:58;;;;;;;4.15;1.15;;;21.70;99.90;;;;;;5066989;28;20036;-71
2022/10/25 12:27:25;;;;;;;12.05;0.80;;;;;;;;;;5090622;28;20031;-70
2022/10/25 12:30:00;;;;;;;3.35;0.80;;;22.40;99.90;;;;;;5090236;28;20027;-71
2022/10/25 12:32:46;;;;;;;4.72;1.20;;;22.60;99.90;;;;;;5081091;28;20038;-71
2022/10/25 12:35:33;;;;;;;3.50;0.90;;;;;;;;;;5090168;28;20024;-72
2022/10/25 12:38:20;;;;;;;5.15;1.10;;;23.70;96.70;;;;;;5091064;28;20024;-71
2022/10/25 12:40:48;;;;;;;4.55;1.30;;;23.70;96.90;;;;;;5064233;28;20028;-71
2022/10/25 12:43:44;;;;;;;4.32;1.27;;;23.80;98.00;;;;;;5090749;28;20032;-71
2022/10/25 12:46:21;;;;;;;4.75;1.23;;;23.90;97.50;;;;;;5090322;28;20496;-71
2022/10/25 12:48:58;;;;;;;5.30;1.50;;;23.50;97.70;;;;;;5089571;28;20017;-72
2022/10/25 12:51:42;;;;;;;5.50;1.73;;;23.20;98.50;;;;;;5090364;28;20052;-71
2022/10/25 12:54:26;;;;;;;5.97;1.80;;;22.90;98.60;;;;;;5087276;28;20024;-71
2022/10/25 12:56:54;;;;;;;3.22;1.45;;;22.50;98.90;;;;;;5089792;28;20069;-71
2022/10/25 12:59:45;;;;;;;3.30;1.10;;;22.50;99.00;;;;;;5090139;28;20025;-71
2022/10/25 13:02:35;;;;;;;7.60;1.10;;;22.50;99.30;;;;;;5090042;28;20024;-70
2022/10/25 13:05:09;;;;;;;3.55;0.93;;;22.30;99.80;;;;;;5089912;28;20038;-71
2022/10/25 13:07:35;;;;;;;4.07;1.10;;;22.10;99.90;;;;;;5089604;28;20026;-70
2022/10/25 13:10:15;;;;;;;7.90;1.50;;;21.90;99.90;;;;;;5090071;28;20035;-71
2022/10/25 13:12:42;;;;;;;6.00;1.30;;;21.80;99.90;;;;;;5089960;28;20024;-71
2022/10/25 13:15:17;;;;;;;5.45;1.30;;;21.50;99.90;;;;;;5090039;28;20473;-70
2022/10/25 13:17:47;;;;;;;5.50;2.00;;;21.30;99.90;;;;;;5089852;28;20024;-70
2022/10/25 13:20:18;;;;;;;5.05;1.38;;;21.30;99.90;;;;;;5089764;28;20016;-71
2022/10/25 13:22:44;;;;;;;5.90;1.15;;;21.40;99.90;;;;;;5089357;28;20024;-71
2022/10/25 13:25:12;;;;;;;9.35;1.42;;;21.20;99.90;;;;;;5089802;28;20035;-71
2022/10/25 13:28:09;;;;;;;6.00;1.20;;;21.00;99.90;;;;;;5091238;28;20125;-71
2022/10/25 13:30:35;;;;;;;7.32;1.58;;;20.90;99.90;;;;;;5089157;28;20074;-74
2022/10/25 13:33:20;;;;;;;3.63;1.10;;;20.60;99.90;;;;;;5090771;28;20040;-72
2022/10/25 13:35:49;;;;;;;4.45;1.60;;;20.40;99.90;;;;;;5091783;28;20043;-72
2022/10/25 13:38:27;;;;;;;3.03;1.10;;;20.40;99.90;;;;;;5093112;28;20423;-72
2022/10/25 13:41:14;;;;;;;3.72;1.20;;;20.60;99.90;;;;;;5092116;28;20161;-71
2022/10/25 13:44:03;;;;;;;4.57;1.30;;;20.60;99.90;;;;;;5092572;28;20032;-72
2022/10/25 13:46:38;;;;;;;6.22;1.42;;;20.50;99.90;;;;;;5087310;28;20020;-71
2022/10/25 13:49:27;;;;;;;6.80;1.20;;;20.50;99.90;;;;;;5093300;28;20457;-71
2022/10/25 13:51:58;;;;;;;5.40;1.80;;;20.10;99.90;;;;;;5092574;28;20048;-72
2022/10/25 13:54:44;;;;;;;3.45;0.95;;;19.80;99.90;;;;;;5090142;28;20028;-70
2022/10/25 13:57:46;;;;;;;5.90;1.38;;;19.50;99.90;;;;;;5086992;28;20469;-71
2022/10/25 14:00:34;;;;;;;4.25;0.95;;;19.20;99.90;;;;;;5091936;28;20032;-72
2022/10/25 14:03:08;;;;;;;5.53;1.30;;;19.20;99.90;;;;;;5089574;28;20477;-69
2022/10/25 14:05:53;;;;;;;5.78;2.05;;;19.30;99.90;;;;;;5091131;28;20039;-69
2022/10/25 14:09:12;;;;;;;4.57;1.33;;;19.20;99.90;;;;;;5090271;28;20035;-71
2022/10/25 14:11:45;;;;;;;5.10;1.58;;;19.20;99.90;;;;;;4991946;28;20041;-73
2022/10/25 14:14:23;;;;;;;6.22;1.77;;;19.00;99.90;;;;;;5083360;28;20036;-70
2022/10/25 14:16:51;;;;;;;2.97;1.05;;;18.90;99.90;;;;;;5091882;28;20020;-71
2022/10/25 14:19:26;;;;;;;11.27;1.73;;;18.80;99.90;;;;;;5086561;28;20048;-69
2022/10/25 14:21:54;;;;;;;3.80;1.20;;;18.60;99.90;;;;;;5089329;28;20085;-70
2022/10/25 14:24:20;;;;;;;6.15;1.73;;;18.50;99.90;;;;;;5088591;28;20392;-71
2022/10/25 14:26:55;;;;;;;4.15;1.80;;;18.50;99.90;;;;;;5091437;28;20020;-71
2022/10/25 14:29:23;;;;;;;4.53;1.45;;;18.40;99.90;;;;;;5069893;28;20043;-70
2022/10/25 14:31:49;;;;;;;11.25;1.38;;;18.40;99.90;;;;;;5091576;28;20024;-72
2022/10/25 14:34:23;;;;;;;6.47;1.52;;;18.30;99.90;;;;;;5082272;28;20027;-71
2022/10/25 14:36:58;;;;;;;10.48;1.55;;;18.30;99.90;;;;;;5087309;28;20473;-72
2022/10/25 14:39:29;;;;;;;4.28;1.27;;;18.30;99.90;;;;;;5085780;28;20038;-71
2022/10/25 14:41:59;;;;;;;6.20;1.50;;;18.30;99.90;;;;;;5088883;28;20085;-72
2022/10/25 14:44:28;;;;;;;6.13;1.42;;;18.20;99.90;;;;;;5087487;28;20115;-72
2022/10/25 14:46:55;;;;;;;4.82;1.30;;;18.20;99.90;;;;;;5090968;28;20020;-71
2022/10/25 14:49:21;;;;;;;5.15;1.55;;;18.20;99.90;;;;;;5086347;28;20036;-70
2022/10/25 14:51:51;;;;;;;9.02;1.48;;;18.10;99.90;;;;;;5090442;28;20050;-70
2022/10/25 14:54:31;;;;;;;5.70;2.33;;;18.10;99.90;;;;;;5090771;28;20032;-71